Buffalo, WY

4:34 AM MST on November 26, 2014 (GMT -0700)
Esponda Ranch | Change Station
CLOSE
Current Station
Personal Weather Station
Location: Buffalo, WY
Elevation: 4665 ft
Nearby Weather Stations
Active Advisory: Winter Weather Advisory Active Notice: Record Report

Elev 4665 ft 44.32 °N, 106.67 °W | Updated 9 minutes ago

Light Snow
Light Snow
26.3 °F
Feels Like 26 °F
N
0.0
Wind Variable Wind from West
Gusts 2.0 mph

Today
High -- | Low -- °F
--% Chance of Precip.
Yesterday
High -- | Low -- °F
Precip. -- in
7:16 AM 4:31 PM
Waxing Crescent, 19% visible
Pressure 30.23 in
Visibility 9.0 miles
Clouds Overcast 4300 ft
Windchill 26 °F
Dew Point 22 °F
Humidity 83%
Rainfall 0.00 in
Snow Depth Not available.
UV 0 out of 12
Pollen .10 out of 12
Air Quality Not available.
Flu Activity Not available.
METAR KBYG 261053Z AUTO 27004KT 9SM -SN OVC043 M03/M08 A3014 RMK AO2 SNB44 SLP236 P0000 T10331078

More Conditions Fewer Conditions

Pressure 30.23 in
Visibility 9.0 miles
Clouds Overcast 4300 ft
Windchill 26 °F
Dew Point 22 °F
Humidity 83%
Rainfall 0.00 in
Snow Depth Not available.
UV 0 out of 12
Pollen .10 out of 12
Air Quality Not available.
Flu Activity Not available.
METAR KBYG 261053Z AUTO 27004KT 9SM -SN OVC043 M03/M08 A3014 RMK AO2 SNB44 SLP236 P0000 T10331078

More Conditions Fewer Conditions

10-Day Weather Forecast

Almanac

Astronomy

Nov. 26, 2014 Rise Set
Actual Time
Civil Twilight
Nautical Twilight
Astronomical Twilight
Moon
Length of Visible Light
Length of Day
Tomorrow will be .
, % of the Moon is Illuminated

Today's Extremes

State Highs State Lows

Community

WunderPhotos

Upload Photos

1,773,708 photos uploaded!

WunderBlogs® & News

Nearby

Air Quality

  Air Quality AQ Index Pollutant
Not available.

Snow Depth

Station Depth Elevation

Earthquake Activity

City Distance Mag. Time & Date
Minimum magnitude displayed is 2.5.

Coastal Water Temperatures

Place Temperature

Nearby Weather Stations